createdAt,value
2022-10-10T00:05:03.369Z,10.7
2022-10-10T00:10:09.567Z,10.7
2022-10-10T00:15:15.775Z,10.6
2022-10-10T00:20:21.980Z,10.6
2022-10-10T00:25:28.188Z,10.5
2022-10-10T00:30:34.389Z,10.5
2022-10-10T00:35:40.601Z,10.4
2022-10-10T00:40:46.809Z,10.4
2022-10-10T00:45:53.019Z,10.3
2022-10-10T00:50:59.224Z,10.3
2022-10-10T00:56:05.430Z,10.3
2022-10-10T01:01:11.720Z,10.2
2022-10-10T01:06:17.849Z,10.2
2022-10-10T01:11:24.059Z,10.2
2022-10-10T01:16:30.263Z,10.2
2022-10-10T01:21:36.470Z,10.1
2022-10-10T01:26:42.682Z,10.1
2022-10-10T01:31:48.893Z,10.1
2022-10-10T01:36:55.095Z,10.1
2022-10-10T01:42:01.318Z,10.0
2022-10-10T01:47:06.573Z,10.0
2022-10-10T01:52:12.751Z,9.9
2022-10-10T01:57:17.981Z,9.9
2022-10-10T02:02:24.190Z,9.9
2022-10-10T02:07:30.391Z,9.8
2022-10-10T02:12:36.616Z,9.8
2022-10-10T02:17:42.808Z,9.8
2022-10-10T02:22:49.337Z,9.7
2022-10-10T02:27:55.230Z,9.7
2022-10-10T02:33:01.438Z,9.6
2022-10-10T02:38:07.669Z,9.6
2022-10-10T02:43:13.852Z,9.5
2022-10-10T02:48:20.072Z,9.5
2022-10-10T02:53:26.265Z,9.5
2022-10-10T02:58:32.475Z,9.5
2022-10-10T03:03:38.676Z,9.4
2022-10-10T03:08:44.881Z,9.4
2022-10-10T03:13:51.090Z,9.4
2022-10-10T03:18:57.307Z,9.4
2022-10-10T03:24:03.509Z,9.4
2022-10-10T03:29:09.720Z,9.4
2022-10-10T03:34:15.946Z,9.4
2022-10-10T03:39:22.142Z,9.3
2022-10-10T03:44:27.381Z,9.3
2022-10-10T03:49:33.592Z,9.3
2022-10-10T03:54:38.810Z,9.3
2022-10-10T03:59:45.028Z,9.3
2022-10-10T04:04:51.235Z,9.3
2022-10-10T04:09:57.441Z,9.3
2022-10-10T04:20:09.861Z,9.3
2022-10-10T04:25:16.060Z,9.3
2022-10-10T04:30:22.265Z,9.3
2022-10-10T04:35:28.475Z,9.4
2022-10-10T04:40:34.680Z,9.4
2022-10-10T04:45:40.890Z,9.4
2022-10-10T04:50:47.102Z,9.5
2022-10-10T04:55:53.312Z,9.5
2022-10-10T05:00:59.547Z,9.5
2022-10-10T05:06:05.727Z,9.5
2022-10-10T05:11:11.934Z,9.5
2022-10-10T05:16:18.160Z,9.5
2022-10-10T05:21:24.358Z,9.5
2022-10-10T05:26:30.557Z,9.5
2022-10-10T05:31:36.779Z,9.5
2022-10-10T05:36:42.974Z,9.4
2022-10-10T05:41:49.194Z,9.4
2022-10-10T05:46:54.430Z,9.4
2022-10-10T05:52:00.821Z,9.4
2022-10-10T05:57:06.845Z,9.4
2022-10-10T06:02:13.112Z,9.4
2022-10-10T06:07:19.258Z,9.4
2022-10-10T06:12:25.458Z,9.4
2022-10-10T06:17:31.676Z,9.4
2022-10-10T06:22:37.881Z,9.4
2022-10-10T06:27:44.087Z,9.4
2022-10-10T06:32:52.548Z,9.5
2022-10-10T06:37:56.490Z,9.5
2022-10-10T06:43:02.702Z,9.6
2022-10-10T06:48:08.906Z,9.7
2022-10-10T06:53:15.117Z,9.8
2022-10-10T06:58:21.325Z,9.9
2022-10-10T07:03:27.561Z,9.9
2022-10-10T07:08:33.737Z,10.1
2022-10-10T07:13:39.946Z,10.2
2022-10-10T07:18:46.156Z,10.3
2022-10-10T07:23:52.367Z,10.5
2022-10-10T07:28:58.574Z,10.6
2022-10-10T07:34:03.802Z,10.9
2022-10-10T07:39:12.730Z,11.1
2022-10-10T07:44:15.247Z,11.3
2022-10-10T07:49:21.462Z,11.5
2022-10-10T07:54:27.664Z,11.8
2022-10-10T07:59:33.881Z,12.0
2022-10-10T08:04:40.084Z,12.3
2022-10-10T08:09:46.296Z,12.5
2022-10-10T08:14:52.501Z,12.8
2022-10-10T08:19:58.705Z,13.1
2022-10-10T08:25:04.918Z,13.4
2022-10-10T08:30:11.121Z,13.7
2022-10-10T08:35:17.335Z,14.0
2022-10-10T08:40:23.546Z,14.3
2022-10-10T08:45:29.757Z,14.6
2022-10-10T08:50:35.960Z,14.9
2022-10-10T08:55:42.173Z,15.1
2022-10-10T09:00:48.479Z,15.4
2022-10-10T09:05:54.873Z,15.7
2022-10-10T09:11:01.081Z,15.9
2022-10-10T09:16:07.034Z,16.0
2022-10-10T09:21:13.261Z,16.2
2022-10-10T09:26:19.463Z,16.4
2022-10-10T09:31:24.691Z,16.7
2022-10-10T09:36:30.897Z,16.9
2022-10-10T09:41:37.111Z,17.1
2022-10-10T09:46:43.306Z,17.2
2022-10-10T09:51:49.528Z,17.4
2022-10-10T09:56:55.728Z,17.5
2022-10-10T10:02:01.950Z,17.6
2022-10-10T10:07:08.145Z,17.8
2022-10-10T10:12:14.355Z,18.0
2022-10-10T10:17:20.568Z,18.2
2022-10-10T10:22:27.083Z,18.3
2022-10-10T10:27:32.980Z,18.4
2022-10-10T10:32:39.190Z,18.5
2022-10-10T10:37:45.388Z,18.6
2022-10-10T10:42:51.601Z,18.7
2022-10-10T10:47:57.827Z,18.7
2022-10-10T10:53:04.019Z,18.8
2022-10-10T10:59:05.475Z,18.9
2022-10-10T11:04:15.636Z,19.0
2022-10-10T11:08:22.649Z,19.2
2022-10-10T11:13:28.859Z,19.5
2022-10-10T11:18:34.100Z,19.6
2022-10-10T11:23:40.297Z,19.8
2022-10-10T11:28:49.774Z,20.0
2022-10-10T11:33:51.744Z,20.0
2022-10-10T11:38:56.978Z,20.1
2022-10-10T11:44:03.191Z,20.1
2022-10-10T11:49:09.397Z,20.2
2022-10-10T11:54:15.607Z,20.3
2022-10-10T11:59:21.815Z,20.5
2022-10-10T12:04:28.027Z,20.6
2022-10-10T12:09:34.234Z,20.7
2022-10-10T12:14:40.443Z,20.8
2022-10-10T12:19:46.651Z,21.0
2022-10-10T12:24:52.913Z,21.1
2022-10-10T12:29:59.066Z,21.1
2022-10-10T12:35:05.278Z,21.1
2022-10-10T12:40:11.487Z,21.2
2022-10-10T12:45:17.706Z,21.3
2022-10-10T12:50:23.903Z,21.3
2022-10-10T12:55:30.177Z,21.2
2022-10-10T13:00:36.331Z,21.2
2022-10-10T13:05:42.529Z,21.2
2022-10-10T13:10:48.736Z,21.1
2022-10-10T13:15:54.948Z,21.1
2022-10-10T13:21:01.605Z,21.0
2022-10-10T13:26:06.410Z,20.9
2022-10-10T13:31:12.600Z,20.9
2022-10-10T13:36:17.844Z,20.8
2022-10-10T13:41:24.045Z,20.7
2022-10-10T13:46:30.251Z,20.6
2022-10-10T13:51:36.461Z,20.5
2022-10-10T13:56:42.675Z,20.3
2022-10-10T14:01:48.953Z,20.2
2022-10-10T14:06:55.094Z,20.0
2022-10-10T14:12:01.300Z,19.9
2022-10-10T14:17:07.513Z,19.8
2022-10-10T14:22:13.716Z,19.7
2022-10-10T14:27:19.929Z,19.6
2022-10-10T14:32:26.150Z,19.5
2022-10-10T14:37:32.345Z,19.3
2022-10-10T14:42:38.550Z,19.2
2022-10-10T14:47:44.767Z,19.0
2022-10-10T14:52:50.970Z,18.9
2022-10-10T14:57:57.181Z,18.8
2022-10-10T15:03:03.437Z,18.7
2022-10-10T15:08:09.608Z,18.6
2022-10-10T15:13:15.799Z,18.4
2022-10-10T15:18:52.052Z,18.2
2022-10-10T15:23:27.249Z,18.0
2022-10-10T15:28:33.541Z,17.8
2022-10-10T15:33:38.698Z,17.5
2022-10-10T15:38:44.896Z,17.1
2022-10-10T15:43:51.101Z,16.9
2022-10-10T15:48:57.306Z,16.7
2022-10-10T15:54:03.518Z,16.5
2022-10-10T15:59:09.724Z,16.3
2022-10-10T16:04:15.942Z,16.1
2022-10-10T16:09:27.714Z,16.1
2022-10-10T16:14:27.380Z,16.0
2022-10-10T16:19:33.580Z,15.9
2022-10-10T16:24:39.787Z,15.8
2022-10-10T16:29:46.004Z,15.8
2022-10-10T16:34:52.214Z,15.8
2022-10-10T16:39:58.530Z,15.7
2022-10-10T16:45:04.640Z,15.7
2022-10-10T16:50:10.866Z,15.7
2022-10-10T16:55:17.069Z,15.6
2022-10-10T17:00:23.284Z,15.6
2022-10-10T17:05:29.488Z,15.5
2022-10-10T17:10:35.703Z,15.5
2022-10-10T17:15:41.928Z,15.5
2022-10-10T17:20:47.171Z,15.5
2022-10-10T17:25:53.389Z,15.4
2022-10-10T17:30:58.750Z,15.3
2022-10-10T17:36:04.839Z,15.2
2022-10-10T17:41:11.069Z,15.1
2022-10-10T17:46:33.058Z,15.0
2022-10-10T17:51:23.486Z,14.9
2022-10-10T17:56:29.720Z,14.8
2022-10-10T18:01:36.017Z,14.7
2022-10-10T18:06:42.134Z,14.6
2022-10-10T18:11:48.339Z,14.5
2022-10-10T18:16:54.550Z,14.4
2022-10-10T18:22:00.760Z,14.3
2022-10-10T18:27:06.976Z,14.2
2022-10-10T18:32:13.180Z,14.1
2022-10-10T18:37:19.396Z,14.0
2022-10-10T18:42:25.601Z,13.9
2022-10-10T18:47:31.802Z,13.8
2022-10-10T18:52:38.012Z,13.7
2022-10-10T18:57:44.222Z,13.6
2022-10-10T19:02:50.439Z,13.5
2022-10-10T19:07:56.644Z,13.5
2022-10-10T19:13:02.856Z,13.4
2022-10-10T19:18:08.080Z,13.3
2022-10-10T19:23:14.290Z,13.3
2022-10-10T19:28:19.589Z,13.2
2022-10-10T19:33:25.740Z,13.1
2022-10-10T19:38:31.955Z,13.1
2022-10-10T19:43:38.150Z,13.0
2022-10-10T19:48:44.354Z,12.9
2022-10-10T19:53:50.564Z,12.9
2022-10-10T19:58:56.774Z,12.8
2022-10-10T20:04:02.997Z,12.7
2022-10-10T20:09:10.950Z,12.7
2022-10-10T20:14:15.398Z,12.6
2022-10-10T20:19:21.608Z,12.5
2022-10-10T20:24:27.816Z,12.4
2022-10-10T20:29:34.022Z,12.3
2022-10-10T20:34:40.241Z,12.2
2022-10-10T20:39:46.439Z,12.1
2022-10-10T20:44:52.649Z,12.0
2022-10-10T20:49:58.861Z,11.9
2022-10-10T20:55:05.081Z,11.8
2022-10-10T21:00:11.281Z,11.7
2022-10-10T21:05:17.479Z,11.6
2022-10-10T21:10:23.693Z,11.5
2022-10-10T21:15:28.913Z,11.4
2022-10-10T21:20:35.129Z,11.4
2022-10-10T21:25:40.366Z,11.3
2022-10-10T21:30:46.573Z,11.2
2022-10-10T21:35:52.786Z,11.2
2022-10-10T21:40:58.987Z,11.1
2022-10-10T21:46:05.601Z,11.1
2022-10-10T21:51:11.402Z,11.1
2022-10-10T21:56:17.613Z,11.1
2022-10-10T22:01:23.921Z,11.1
2022-10-10T22:06:30.034Z,11.1
2022-10-10T22:11:36.228Z,11.0
2022-10-10T22:16:42.440Z,11.0
2022-10-10T22:21:48.650Z,11.0
2022-10-10T22:26:54.862Z,10.9
2022-10-10T22:32:01.085Z,10.9
2022-10-10T22:37:07.277Z,10.9
2022-10-10T22:42:13.486Z,10.8
2022-10-10T22:47:19.691Z,10.8
2022-10-10T22:52:25.901Z,10.8
2022-10-10T22:57:32.116Z,10.8
2022-10-10T23:02:38.329Z,10.8
2022-10-10T23:07:44.531Z,10.7
2022-10-10T23:12:49.762Z,10.7
2022-10-10T23:17:55.970Z,10.7
2022-10-10T23:23:01.212Z,10.6
2022-10-10T23:28:07.444Z,10.6
2022-10-10T23:33:13.619Z,10.5
2022-10-10T23:38:19.820Z,10.4
2022-10-10T23:43:26.037Z,10.4
2022-10-10T23:48:32.238Z,10.3
2022-10-10T23:53:38.455Z,10.3
2022-10-10T23:58:44.657Z,10.2
